Bookmark and Share
Track history (hours):
 

Mckinley Sea

More information available from US FCC via Universal Licensing System and Coast Guard Vessel Documentation Center.

Last reported at 2014-Apr-21 09:33 UTC. Time now 2014-Apr-21 10:19 UTC.
Position N 39°49' W 075°24'.

Length 46 m; draft 7 m.

Type: Towing. MMSI: 367360980.

NotesDate/timePositionNaut miles runAvg speedWind from/ knotsBaromVisibWave heightAir tempDewpointWater temp
2014-Apr-21 09:33N 39°49' W 075°24'0 0.0
2014-Apr-21 06:31N 39°49' W 075°24'0 0.1
2014-Apr-21 05:33N 39°48' W 075°24'60 1.9
2014-Apr-19 21:32N 39°29' W 074°10'10 9.7
2014-Apr-19 20:33N 39°38' W 074°04'10 9.8
2014-Apr-19 19:33N 39°47' W 073°59'50 6.2
2014-Apr-19 11:33N 40°35' W 074°12'0 0.0
2014-Apr-19 09:33N 40°35' W 074°12'0 0.0
2014-Apr-19 08:18N 40°35' W 074°12'0 0.0
2014-Apr-19 07:19N 40°35' W 074°12'0 0.0
2014-Apr-19 06:33N 40°35' W 074°12'0 0.0
2014-Apr-19 05:25N 40°35' W 074°12'0 0.0
2014-Apr-19 04:07N 40°35' W 074°12'0 0.0
2014-Apr-19 03:33N 40°35' W 074°12'0 0.0
2014-Apr-19 02:33N 40°35' W 074°12'0 0.0
2014-Apr-19 01:18N 40°35' W 074°12'0 0.0
2014-Apr-18 23:32N 40°35' W 074°12'3 3.3
2014-Apr-18 22:31N 40°39' W 074°11'1 1.0
2014-Apr-18 21:33N 40°38' W 074°10'0 0.0
2014-Apr-18 20:34N 40°38' W 074°10'0 0.0
2014-Apr-18 17:27N 40°38' W 074°10'0 0.0
2014-Apr-18 16:31N 40°38' W 074°10'0 0.0
2014-Apr-18 15:33N 40°38' W 074°10'0 0.0
2014-Apr-18 14:33N 40°39' W 074°10'0 0.0
2014-Apr-18 13:33N 40°39' W 074°10'0 0.0
2014-Apr-18 12:33N 40°39' W 074°10'0 0.0
2014-Apr-18 11:33N 40°39' W 074°10'3 2.6
2014-Apr-18 10:33N 40°37' W 074°12'1 0.1
2014-Apr-18 05:19N 40°37' W 074°12'4 5.0
2014-Apr-18 04:33N 40°39' W 074°08'5 5.4
2014-Apr-18 03:33N 40°35' W 074°02'8 7.2
2014-Apr-18 02:29N 40°29' W 073°55'7 6.7
2014-Apr-18 01:31N 40°23' W 073°53'34 6.5
2014-Apr-17 20:20N 39°50' W 073°58'5 6.1
2014-Apr-17 19:32N 39°45' W 073°59'6 6.0
2014-Apr-17 18:30N 39°39' W 074°02'6 6.1
2014-Apr-17 17:33N 39°34' W 074°06'  
2014-Apr-13 09:30N 39°37' W 074°05'9 9.5
2014-Apr-13 08:33N 39°45' W 073°60'9 9.5
2014-Apr-13 07:33N 39°54' W 073°58'9 9.4
2014-Apr-13 06:33N 40°03' W 073°57'9 9.3
2014-Apr-13 05:33N 40°13' W 073°56'9 9.4
2014-Apr-13 04:33N 40°22' W 073°54'9 8.5
2014-Apr-13 03:33N 40°30' W 073°57'10 9.6
2014-Apr-13 02:34N 40°39' W 074°02'10 9.6
2014-Apr-13 01:33N 40°47' W 073°55'10 7.8
2014-Apr-13 00:20N 40°52' W 073°44'18 9.9
2014-Apr-12 22:34N 41°01' W 073°24'10 9.8
2014-Apr-12 21:33N 41°04' W 073°12'13 9.3
2014-Apr-12 20:09N 41°11' W 072°57'7 3.5
2014-Apr-12 18:05N 41°18' W 072°54'0 0.1
2014-Apr-12 17:33N 41°18' W 072°54'0 0.0
2014-Apr-12 16:33N 41°18' W 072°54'0 0.0
2014-Apr-12 15:32N 41°18' W 072°54'0 0.0
2014-Apr-12 12:04N 41°18' W 072°54'0 0.0
2014-Apr-12 11:33N 41°18' W 072°54'0 0.0
2014-Apr-12 10:28N 41°18' W 072°54'0 0.0
2014-Apr-12 09:26N 41°18' W 072°54'0 0.0
2014-Apr-12 05:31N 41°18' W 072°54'0 0.3
2014-Apr-12 04:33N 41°18' W 072°55'0 0.0
2014-Apr-12 03:09N 41°18' W 072°55'0 0.0
2014-Apr-12 01:32N 41°18' W 072°55'0 0.0
2014-Apr-12 00:28N 41°18' W 072°55'0 0.0
2014-Apr-11 23:33N 41°18' W 072°55'0 0.0
2014-Apr-11 22:33N 41°18' W 072°55'0 0.0
2014-Apr-11 21:33N 41°18' W 072°55'0 0.0
2014-Apr-11 20:32N 41°18' W 072°55'0 0.0
2014-Apr-11 19:10N 41°18' W 072°55'0 0.0
2014-Apr-11 18:33N 41°18' W 072°55'0 0.0
2014-Apr-11 17:33N 41°18' W 072°55'0 0.0
2014-Apr-11 16:33N 41°18' W 072°55'0 0.0
2014-Apr-11 15:22N 41°18' W 072°55'0 0.1
2014-Apr-11 14:33N 41°18' W 072°55'4 4.2
2014-Apr-11 13:33N 41°14' W 072°55'6 5.8
2014-Apr-11 12:33N 41°09' W 072°59'8 6.6
2014-Apr-11 11:22N 41°05' W 073°08'6 6.7
2014-Apr-11 10:32N 41°03' W 073°15'7 6.9
2014-Apr-11 09:33N 41°01' W 073°24'  

Dump ship's entire track history

sailing weather and tide predictions

Mckinley Sea — WDE5024 — position and weather